Portada
METAR-TAF:

METAR-TAF

Aeroports :

Agra, Índia

latitud: 27-09-27N, longitud: 077-57-39E, altitud: 168 m

METAR: manca

Hora: 23:52 (18:22 UTC)

Pronòstic

L'informe es va fer fa 2 hores i 52 minuts, a les 15:30 UTC
Pronòstic vàlid del 23 a les 12 UTC al 24 a les 06 UTC
Vent 10 kt del Est
Visibilitat: 6000 m
Escasses núvols a una alçada de 2000 ft
Núvols disperses a una alçada de 10000 ft
Cel ennuvolat a una alçada de 25000 ft

TAF: VIAG 231530Z 2312/2406 09010KT 6000 FEW020 SCT100 BKN250

Observacions i pronòstics meteorològics de més de 4000 aeroports (METAR i TAF).

Les estacions disponibles són els punts grocs i vermells al mapa.

Posi el ratolí al punt desitjat per veure el nom de l'estació.

Feu clic per veure les observacions i els pronòstics meteorològics.

Per canviar el mapa: feu clic els botons verds amb una creu de color negre per apropar; al botó verd amb un guió per allunyar la imatge; o en les fletxes verdes per a mapes adjacents.


METAR-TAF: